Portada
METAR-TAF:

METAR-TAF

Aeroports :

Changsha, Xina

latitud: 28-11N, longitud: 113-13E, altitud: 66 m

Observació

L'informe es va fer fa 45 minuts, a les 06:00 UTC
Vent 6 kt del Nord/Nord-Oest
Temperatura 11°C
Humitat 82%
Pressió 1018 hPa
Visibilitat 10 km o més
Cel ennuvolat a una alçada de 2600 ft

METAR: ZGHA 300600Z 34003MPS 9999 BKN026 11/08 Q1018 NOSIG

Hora: 14:45 (06:45 UTC)

Pronòstic

L'informe es va fer fa 5 hores i 14 minuts, a les 01:31 UTC
Pronòstic vàlid del 30 a les 06 UTC al 31 a les 06 UTC
Vent 6 kt del Nord
Visibilitat: 6000 m
Escasses núvols a una alçada de 1300 ft
Cel ennuvolat a una alçada de 2000 ft

TAF: ZGHA 300131Z 3006/3106 35003MPS 6000 FEW013 BKN020 TX12/3007Z TN07/3022Z

Observacions i pronòstics meteorològics de més de 4000 aeroports (METAR i TAF).

Les estacions disponibles són els punts grocs i vermells al mapa.

Posi el ratolí al punt desitjat per veure el nom de l'estació.

Feu clic per veure les observacions i els pronòstics meteorològics.

Per canviar el mapa: feu clic els botons verds amb una creu de color negre per apropar; al botó verd amb un guió per allunyar la imatge; o en les fletxes verdes per a mapes adjacents.


METAR-TAF: